Time;durP1;ratioP1;P1;durP2;ratioP2;P2;SDS_P1;SDS_P2;PMS_P1;PMS_P2;Temp;Humidity;BMP_temperature;BMP_pressure;BME280_temperature;BME280_humidity;BME280_pressure;Samples;Min_cycle;Max_cycle;Signal;HPM_P1;HPM_P2
2021/04/09 00:01:02;;;;;;;26.90;16.97;;;;;;;0.75;72.02;101080.37;1746195;81;21385;-73
2021/04/09 00:03:31;;;;;;;29.37;17.17;;;;;;;0.70;72.15;101083.55;1758857;80;21237;-73
2021/04/09 00:05:58;;;;;;;29.02;16.17;;;;;;;0.68;72.27;101087.34;1755300;79;21232;-73
2021/04/09 00:08:26;;;;;;;24.20;14.10;;;;;;;0.61;72.39;101084.61;1749319;81;21185;-73
2021/04/09 00:10:54;;;;;;;22.85;13.28;;;;;;;0.56;72.53;101086.13;1760839;80;22415;-73
2021/04/09 00:13:22;;;;;;;26.48;15.30;;;;;;;0.49;72.72;101089.97;1758900;80;22169;-73
2021/04/09 00:15:50;;;;;;;23.87;14.53;;;;;;;0.46;72.85;101098.20;1760746;80;21215;-73
2021/04/09 00:18:19;;;;;;;23.12;15.23;;;;;;;0.44;72.91;101100.22;1743317;81;21670;-74
2021/04/09 00:20:49;;;;;;;22.17;15.20;;;;;;;0.43;72.92;101099.40;1752369;81;21817;-73
2021/04/09 00:23:17;;;;;;;23.42;14.78;;;;;;;0.42;72.96;101100.38;1760262;80;21184;-74
2021/04/09 00:25:45;;;;;;;30.82;15.98;;;;;;;0.41;72.93;101104.51;1759696;80;21386;-72
2021/04/09 00:28:13;;;;;;;27.70;16.20;;;;;;;0.32;72.93;101107.69;1757814;81;21201;-73
2021/04/09 00:30:41;;;;;;;28.85;16.55;;;;;;;0.25;72.96;101112.52;1757091;79;21201;-73
2021/04/09 00:33:09;;;;;;;28.25;16.48;;;;;;;0.20;72.98;101111.73;1752953;80;21190;-72
2021/04/09 00:35:38;;;;;;;27.87;16.73;;;;;;;0.16;73.02;101113.87;1763631;79;21157;-73
2021/04/09 00:38:06;;;;;;;27.30;15.70;;;;;;;0.12;73.12;101118.34;1763750;81;21419;-72
2021/04/09 00:40:35;;;;;;;27.15;15.40;;;;;;;0.09;73.20;101123.44;1755853;81;21176;-73
2021/04/09 00:43:06;;;;;;;23.30;14.95;;;;;;;0.05;73.30;101124.78;1761480;80;21184;-73
2021/04/09 00:45:37;;;;;;;24.92;14.63;;;;;;;0.05;73.48;101124.78;1778599;79;21106;-73
2021/04/09 00:48:09;;;;;;;18.70;12.23;;;;;;;0.05;73.66;101134.48;1750612;80;21157;-73
2021/04/09 00:50:37;;;;;;;19.62;13.05;;;;;;;0.05;73.87;101131.35;1745923;82;21574;-73
2021/04/09 00:53:09;;;;;;;19.27;13.68;;;;;;;0.04;74.10;101135.48;1741215;80;21245;-73
2021/04/09 00:55:38;;;;;;;15.68;11.20;;;;;;;0.04;74.28;101133.67;1759510;80;21209;-73
2021/04/09 00:58:07;;;;;;;16.80;11.10;;;;;;;0.05;74.48;101131.85;1777730;80;21169;-72
2021/04/09 01:00:35;;;;;;;17.48;12.20;;;;;;;0.07;74.66;101132.51;1777233;79;21595;-74
2021/04/09 01:03:04;;;;;;;17.98;12.78;;;;;;;0.07;74.81;101130.70;1778305;79;21596;-73
2021/04/09 01:05:33;;;;;;;17.57;11.22;;;;;;;0.07;74.99;101132.51;1771480;79;21215;-73
2021/04/09 01:08:02;;;;;;;17.40;12.10;;;;;;;0.09;75.23;101139.20;1777196;79;21179;-74
2021/04/09 01:10:30;;;;;;;18.17;12.30;;;;;;;0.08;75.30;101137.58;1741704;80;21144;-73
2021/04/09 01:13:00;;;;;;;18.27;13.05;;;;;;;0.10;75.34;101138.70;1738333;80;21123;-73
2021/04/09 01:15:28;;;;;;;18.27;13.60;;;;;;;0.11;75.35;101142.48;1780283;79;21373;-73
2021/04/09 01:18:19;;;;;;;19.23;12.73;;;;;;;0.12;75.32;101145.42;1744146;80;22249;-73
2021/04/09 01:21:13;;;;;;;;;;;;;;;0.12;75.31;101144.61;1725061;80;21639;-73
2021/04/09 01:24:25;;;;;;;20.08;12.93;;;;;;;0.14;75.31;101146.08;1729865;80;20272;-73
2021/04/09 01:27:14;;;;;;;18.80;12.25;;;;;;;0.12;75.26;101152.48;1779044;79;21234;-73
2021/04/09 01:30:08;;;;;;;17.48;12.90;;;;;;;0.10;75.25;101151.36;1750540;81;22324;-71
2021/04/09 01:32:36;;;;;;;18.10;12.58;;;;;;;0.07;75.29;101156.15;1744587;80;21173;-73
2021/04/09 01:35:08;;;;;;;17.60;12.25;;;;;;;0.03;75.37;101158.27;1746708;80;21202;-73
2021/04/09 01:37:41;;;;;;;16.65;12.13;;;;;;;-0.01;75.40;101156.98;1739477;80;21209;-72
2021/04/09 01:40:27;;;;;;;;;;;;;;;-0.04;75.41;101164.71;1747856;80;21189;-73
2021/04/09 01:42:59;;;;;;;18.50;12.18;;;;;;;-0.06;75.46;101165.90;1725921;82;21298;-72
2021/04/09 01:45:28;;;;;;;17.40;12.73;;;;;;;-0.09;75.44;101164.92;1749740;80;21185;-72
2021/04/09 01:47:57;;;;;;;18.25;12.53;;;;;;;-0.07;75.45;101161.11;1778178;80;21172;-73
2021/04/09 01:50:27;;;;;;;20.92;13.13;;;;;;;-0.05;75.42;101170.15;1774346;79;21096;-73
2021/04/09 01:52:55;;;;;;;17.52;12.65;;;;;;;-0.05;75.44;101174.09;1780694;79;21615;-73
2021/04/09 01:55:24;;;;;;;18.27;12.45;;;;;;;-0.06;75.46;101179.84;1750493;80;21377;-74
2021/04/09 01:57:52;;;;;;;17.27;12.43;;;;;;;-0.07;75.46;101177.37;1720947;81;21216;-73
2021/04/09 02:00:23;;;;;;;17.27;12.55;;;;;;;-0.07;75.42;101180.81;1766142;80;21104;-73
2021/04/09 02:02:52;;;;;;;18.40;13.05;;;;;;;-0.07;75.41;101186.56;1774341;80;21021;-73
2021/04/09 02:05:26;;;;;;;18.25;12.50;;;;;;;-0.09;75.42;101193.81;1772610;79;21148;-73
2021/04/09 02:07:56;;;;;;;18.30;12.90;;;;;;;-0.16;75.54;101188.92;1777591;80;22304;-72
2021/04/09 02:10:25;;;;;;;;;;;;;;;-0.24;75.68;101189.76;1781137;79;21156;-72
2021/04/09 02:12:54;;;;;;;18.55;10.98;;;;;;;-0.31;75.87;101193.55;1779270;80;20270;-74
2021/04/09 02:15:24;;;;;;;17.95;12.60;;;;;;;-0.36;76.15;101198.52;1779858;79;21152;-72
2021/04/09 02:17:53;;;;;;;16.90;12.00;;;;;;;-0.38;76.33;101196.54;1747520;80;21167;-73
2021/04/09 02:20:23;;;;;;;15.85;11.10;;;;;;;-0.40;76.53;101193.75;1752891;80;21382;-72
2021/04/09 02:22:52;;;;;;;16.57;12.03;;;;;;;-0.40;76.69;101201.62;1740150;80;21246;-72
2021/04/09 02:25:22;;;;;;;17.42;11.78;;;;;;;-0.41;76.82;101199.50;1752522;80;21174;-73
2021/04/09 02:27:52;;;;;;;17.20;11.63;;;;;;;-0.42;77.03;101205.75;1776550;79;21143;-73
2021/04/09 02:30:22;;;;;;;15.38;11.55;;;;;;;-0.40;77.18;101209.50;1778064;79;21204;-73
2021/04/09 02:32:50;;;;;;;16.27;11.60;;;;;;;-0.41;77.37;101211.31;1764868;79;21591;-72
2021/04/09 02:35:21;;;;;;;16.20;11.30;;;;;;;-0.41;77.56;101209.18;1783501;79;21273;-72
2021/04/09 02:37:53;;;;;;;17.92;12.70;;;;;;;-0.39;77.98;101213.78;1779129;79;21579;-73
2021/04/09 02:40:31;;;;;;;18.20;12.93;;;;;;;-0.36;78.22;101216.89;1760742;80;21165;-73
2021/04/09 02:42:59;;;;;;;15.85;10.88;;;;;;;-0.33;78.39;101215.70;1751584;80;21319;-72
2021/04/09 02:45:28;;;;;;;21.45;14.43;;;;;;;-0.29;78.44;101221.78;1769129;79;21389;-72
2021/04/09 02:47:58;;;;;;;19.02;14.28;;;;;;;-0.25;78.46;101219.63;1778835;79;21130;-73
2021/04/09 02:50:36;;;;;;;19.87;14.53;;;;;;;-0.22;78.43;101223.73;1782013;79;21161;-72
2021/04/09 02:53:14;;;;;;;19.98;14.60;;;;;;;-0.19;78.50;101228.64;1762519;79;21153;-73
2021/04/09 02:55:44;;;;;;;21.20;15.03;;;;;;;-0.18;78.45;101225.84;1751124;80;21200;-72
2021/04/09 02:58:14;;;;;;;21.75;14.90;;;;;;;-0.18;78.39;101237.65;1771936;79;21366;-72
2021/04/09 03:00:47;;;;;;;23.62;16.75;;;;;;;-0.14;78.33;101242.06;1750061;80;21142;-73
2021/04/09 03:03:16;;;;;;;21.40;16.48;;;;;;;-0.18;78.35;101241.59;1779280;79;21621;-73
2021/04/09 03:05:45;;;;;;;23.75;16.07;;;;;;;-0.16;78.33;101246.19;1784825;79;21140;-74
2021/04/09 03:08:13;;;;;;;16.90;12.63;;;;;;;-0.17;78.22;101243.72;1753105;81;21094;-73
2021/04/09 03:10:41;;;;;;;18.45;13.98;;;;;;;-0.21;78.15;101245.86;1747885;80;21212;-71
2021/04/09 03:13:10;;;;;;;17.82;13.30;;;;;;;-0.29;78.21;101249.34;1713574;81;21589;-73
2021/04/09 03:15:59;;;;;;;18.20;12.88;;;;;;;-0.32;78.31;101253.61;1765279;79;21176;-73
2021/04/09 03:18:34;;;;;;;19.70;13.20;;;;;;;-0.36;78.45;101257.56;1766173;79;21151;-74
2021/04/09 03:21:02;;;;;;;19.42;13.78;;;;;;;-0.40;78.61;101263.30;1747077;81;21259;-73
2021/04/09 03:23:30;;;;;;;18.37;13.88;;;;;;;-0.43;78.66;101267.08;1756086;81;21378;-73
2021/04/09 03:25:58;;;;;;;18.77;13.60;;;;;;;-0.44;78.70;101277.75;1777907;79;21594;-74
2021/04/09 03:28:26;;;;;;;19.27;13.45;;;;;;;-0.47;78.81;101279.71;1748229;82;21057;-73
2021/04/09 03:30:54;;;;;;;19.07;13.88;;;;;;;-0.46;78.89;101285.80;1755327;80;21092;-73
2021/04/09 03:33:24;;;;;;;21.02;13.65;;;;;;;-0.44;78.96;101285.63;1737292;80;21172;-72
2021/04/09 03:35:52;;;;;;;16.48;12.07;;;;;;;-0.41;78.95;101295.30;1734488;80;21396;-73
2021/04/09 03:38:20;;;;;;;19.10;13.60;;;;;;;-0.38;78.96;101300.21;1743727;80;21084;-73
2021/04/09 03:40:50;;;;;;;20.20;13.13;;;;;;;-0.33;78.95;101307.58;1749125;80;21197;-73
2021/04/09 03:43:19;;;;;;;18.15;14.20;;;;;;;-0.29;78.92;101313.66;1748288;81;21102;-72
2021/04/09 03:45:48;;;;;;;19.32;13.78;;;;;;;-0.24;78.90;101315.77;1748289;81;21198;-72
2021/04/09 03:48:16;;;;;;;17.92;12.90;;;;;;;-0.17;78.88;101313.29;1743807;80;21281;-73
2021/04/09 03:50:44;;;;;;;19.07;14.00;;;;;;;-0.10;78.86;101319.50;1748591;80;21197;-74
2021/04/09 03:53:12;;;;;;;20.32;13.70;;;;;;;-0.06;78.83;101319.52;1745961;80;21222;-74
2021/04/09 03:55:41;;;;;;;20.72;14.83;;;;;;;0.02;78.83;101331.30;1733297;81;21140;-72
2021/04/09 03:58:09;;;;;;;18.05;13.90;;;;;;;0.08;78.76;101332.44;1741705;82;21178;-73
2021/04/09 04:00:37;;;;;;;18.57;13.70;;;;;;;0.13;78.75;101334.05;1743646;80;21373;-73
2021/04/09 04:03:05;;;;;;;20.90;14.43;;;;;;;0.17;78.74;101333.56;1746165;80;21084;-73
2021/04/09 04:05:34;;;;;;;18.12;13.70;;;;;;;0.22;78.77;101339.11;1740368;81;21225;-73
2021/04/09 04:08:02;;;;;;;18.70;13.43;;;;;;;0.28;78.78;101343.38;1745785;82;21270;-72
2021/04/09 04:10:32;;;;;;;21.23;14.85;;;;;;;0.33;78.74;101342.36;1739258;80;21126;-72
2021/04/09 04:13:02;;;;;;;17.40;12.65;;;;;;;0.35;78.72;101340.39;1775793;79;21142;-73
2021/04/09 04:15:32;;;;;;;20.62;14.00;;;;;;;0.43;78.70;101349.57;1752540;80;21675;-73
2021/04/09 04:17:59;;;;;;;18.92;14.83;;;;;;;0.44;78.65;101351.20;1751053;80;21157;-74
2021/04/09 04:20:27;;;;;;;18.90;14.05;;;;;;;0.50;78.63;101352.33;1750148;80;21194;-73
2021/04/09 04:22:55;;;;;;;18.00;14.13;;;;;;;0.59;78.61;101357.38;1740187;81;21122;-73
2021/04/09 04:25:23;;;;;;;20.15;14.80;;;;;;;0.69;78.49;101359.30;1735144;80;21220;-73
2021/04/09 04:27:52;;;;;;;20.30;14.53;;;;;;;0.77;78.36;101362.37;1764949;80;21174;-73
2021/04/09 04:30:21;;;;;;;19.85;14.50;;;;;;;0.86;78.20;101376.31;1762220;79;21247;-73
2021/04/09 04:32:50;;;;;;;18.17;14.10;;;;;;;0.93;78.08;101379.88;1776010;79;21165;-72
2021/04/09 04:35:19;;;;;;;18.87;14.13;;;;;;;0.98;77.91;101386.74;1787718;79;21522;-73
2021/04/09 04:37:47;;;;;;;20.40;15.15;;;;;;;1.04;77.79;101380.79;1743202;80;21376;-73
2021/04/09 04:40:16;;;;;;;18.98;13.60;;;;;;;1.09;77.61;101386.87;1725365;80;21108;-72
2021/04/09 04:42:44;;;;;;;21.65;15.65;;;;;;;1.12;77.45;101382.58;1753427;80;21121;-72
2021/04/09 04:45:14;;;;;;;18.27;14.30;;;;;;;1.08;77.28;101378.63;1776904;79;21259;-73
2021/04/09 04:47:41;;;;;;;18.73;15.15;;;;;;;1.05;77.30;101386.37;1779705;79;21705;-73
2021/04/09 04:50:12;;;;;;;20.90;15.55;;;;;;;1.07;77.23;101387.52;1748694;80;21591;-73
2021/04/09 04:52:40;;;;;;;18.57;13.65;;;;;;;1.08;77.21;101389.97;1746503;81;21204;-70
2021/04/09 04:55:11;;;;;;;21.57;15.30;;;;;;;1.11;77.14;101396.20;1772689;79;21163;-72
2021/04/09 04:57:39;;;;;;;19.40;14.47;;;;;;;1.12;77.04;101397.86;1779881;79;21192;-73
2021/04/09 05:00:09;;;;;;;20.15;15.23;;;;;;;1.17;76.98;101406.03;1764463;79;21053;-72
2021/04/09 05:02:36;;;;;;;20.88;15.68;;;;;;;1.21;76.92;101400.42;1761182;79;21839;-72
2021/04/09 05:05:06;;;;;;;21.02;15.23;;;;;;;1.26;76.87;101399.41;1762791;80;21220;-73
2021/04/09 05:07:34;;;;;;;21.93;15.80;;;;;;;1.34;76.80;101400.16;1748878;81;21070;-74
2021/04/09 05:10:05;;;;;;;18.67;14.70;;;;;;;1.44;76.73;101399.93;1763929;79;21197;-72
2021/04/09 05:12:33;;;;;;;20.80;15.50;;;;;;;1.57;76.66;101401.97;1761033;80;21633;-73
2021/04/09 05:15:00;;;;;;;19.07;14.13;;;;;;;1.67;76.49;101405.17;1762357;80;21442;-71
2021/04/09 05:17:28;;;;;;;20.97;15.60;;;;;;;1.76;76.33;101407.26;1763939;80;21161;-72
2021/04/09 05:19:57;;;;;;;21.42;15.72;;;;;;;1.82;76.20;101415.27;1775362;79;21672;-73
2021/04/09 05:22:25;;;;;;;21.77;15.48;;;;;;;1.91;76.08;101422.61;1748986;80;21217;-72
2021/04/09 05:24:54;;;;;;;21.65;15.93;;;;;;;2.00;75.92;101422.02;1737619;82;21171;-72
2021/04/09 05:27:22;;;;;;;19.30;13.93;;;;;;;2.09;75.84;101420.95;1750773;80;21224;-73
2021/04/09 05:29:50;;;;;;;19.70;14.75;;;;;;;2.23;75.73;101425.41;1778595;79;21076;-73
2021/04/09 05:32:20;;;;;;;18.57;13.40;;;;;;;2.33;75.40;101424.64;1753127;80;21164;-73
2021/04/09 05:34:48;;;;;;;21.35;16.87;;;;;;;2.43;75.20;101431.47;1752010;80;21212;-74
2021/04/09 05:37:16;;;;;;;21.95;16.10;;;;;;;2.52;75.10;101432.52;1746820;80;21142;-73
2021/04/09 05:39:44;;;;;;;21.23;15.58;;;;;;;2.66;74.98;101431.38;1739299;80;21198;-72
2021/04/09 05:42:13;;;;;;;20.82;15.48;;;;;;;2.79;74.42;101438.13;1744077;80;21138;-73
2021/04/09 05:44:41;;;;;;;20.95;16.10;;;;;;;2.88;74.01;101434.91;1748790;79;21123;-73
2021/04/09 05:47:11;;;;;;;22.00;16.15;;;;;;;2.97;73.87;101435.94;1749795;80;21138;-73
2021/04/09 05:49:38;;;;;;;18.65;13.95;;;;;;;3.12;73.59;101439.03;1773710;79;21193;-73
2021/04/09 05:52:08;;;;;;;20.15;15.83;;;;;;;3.26;73.20;101440.33;1744378;80;21401;-73
2021/04/09 05:54:37;;;;;;;20.95;16.93;;;;;;;3.41;72.93;101441.59;1777220;79;21233;-73
2021/04/09 05:57:07;;;;;;;19.15;15.68;;;;;;;3.57;72.43;101447.64;1754041;80;21196;-74
2021/04/09 05:59:35;;;;;;;20.70;15.80;;;;;;;3.72;71.88;101448.40;1776896;79;21277;-73
2021/04/09 06:02:05;;;;;;;18.77;15.25;;;;;;;3.85;71.49;101446.35;1778776;79;21083;-73
2021/04/09 06:04:33;;;;;;;21.02;15.35;;;;;;;3.98;71.18;101436.73;1777730;79;21669;-72
2021/04/09 06:07:01;;;;;;;20.68;15.60;;;;;;;4.16;70.86;101447.33;1773255;80;21142;-72
2021/04/09 06:09:30;;;;;;;23.98;15.93;;;;;;;4.32;70.23;101444.89;1777738;79;21108;-72
2021/04/09 06:11:58;;;;;;;23.30;17.05;;;;;;;4.42;69.42;101448.81;1780441;79;21135;-72
2021/04/09 06:14:28;;;;;;;20.30;15.18;;;;;;;4.52;69.09;101446.34;1775836;79;21637;-72
2021/04/09 06:16:58;;;;;;;19.52;15.93;;;;;;;4.65;68.52;101450.37;1778926;79;21578;-72
2021/04/09 06:19:26;;;;;;;22.90;16.40;;;;;;;4.73;67.87;101447.55;1753732;79;21183;-73
2021/04/09 06:21:55;;;;;;;21.25;15.85;;;;;;;4.80;67.52;101449.72;1746291;80;21229;-73
2021/04/09 06:24:24;;;;;;;20.88;16.40;;;;;;;4.92;67.35;101448.66;1747246;80;21072;-72
2021/04/09 06:26:53;;;;;;;19.27;15.70;;;;;;;5.03;66.90;101448.59;1748867;81;21151;-72
2021/04/09 06:29:21;;;;;;;21.45;16.52;;;;;;;5.17;66.71;101449.78;1772818;80;21148;-74
2021/04/09 06:31:50;;;;;;;20.45;15.43;;;;;;;5.32;66.01;101452.77;1775799;79;21130;-73
2021/04/09 06:34:18;;;;;;;18.85;15.43;;;;;;;5.45;65.86;101445.36;1763546;79;21144;-72
2021/04/09 06:36:46;;;;;;;22.13;15.63;;;;;;;5.60;65.36;101449.98;1778887;79;21176;-72
2021/04/09 06:39:15;;;;;;;24.82;16.65;;;;;;;5.72;65.01;101454.97;1777451;80;21167;-73
2021/04/09 06:41:43;;;;;;;21.82;16.45;;;;;;;5.86;64.61;101457.14;1775446;79;21473;-72
2021/04/09 06:44:12;;;;;;;26.07;17.37;;;;;;;5.93;64.06;101456.66;1763572;79;21148;-72
2021/04/09 06:46:41;;;;;;;22.75;16.67;;;;;;;5.94;63.45;101454.82;1773195;79;21227;-74
2021/04/09 06:49:11;;;;;;;23.60;17.10;;;;;;;5.93;63.01;101460.64;1777967;79;21164;-72
2021/04/09 06:51:45;;;;;;;22.42;16.25;;;;;;;5.92;62.50;101461.61;1774896;79;21580;-72
2021/04/09 06:54:16;;;;;;;21.77;15.60;;;;;;;5.95;62.39;101457.77;1775381;79;21378;-72
2021/04/09 06:56:44;;;;;;;17.50;14.20;;;;;;;5.96;62.20;101464.73;1763517;79;21135;-72
2021/04/09 06:59:18;;;;;;;20.68;15.60;;;;;;;5.95;61.95;101463.08;1766801;80;21572;-73
2021/04/09 07:01:47;;;;;;;20.25;14.65;;;;;;;5.93;61.90;101465.13;1777425;79;21140;-73
2021/04/09 07:04:15;;;;;;;19.55;15.60;;;;;;;5.99;61.73;101469.11;1777925;80;21195;-73
2021/04/09 07:06:43;;;;;;;18.70;14.58;;;;;;;6.02;61.89;101466.53;1758978;80;21807;-75
2021/04/09 07:09:14;;;;;;;18.67;14.70;;;;;;;6.14;61.91;101472.05;1777711;79;21144;-74
2021/04/09 07:11:51;;;;;;;21.55;16.20;;;;;;;6.20;61.41;101475.22;1748509;80;21156;-72
2021/04/09 07:14:20;;;;;;;19.23;14.90;;;;;;;6.23;61.00;101474.81;1767110;79;21175;-74
2021/04/09 07:17:00;;;;;;;22.00;16.57;;;;;;;6.24;60.89;101475.92;1708010;80;21672;-74
2021/04/09 07:19:33;;;;;;;21.20;16.15;;;;;;;6.23;60.83;101473.48;1773217;79;21205;-73
2021/04/09 07:22:04;;;;;;;20.80;15.60;;;;;;;6.31;61.08;101479.38;1776581;79;21596;-74
2021/04/09 07:24:33;;;;;;;21.27;16.30;;;;;;;6.45;60.67;101481.52;1773293;79;21189;-74
2021/04/09 07:27:01;;;;;;;20.23;15.83;;;;;;;6.56;60.86;101480.06;1750376;80;21257;-73
2021/04/09 07:29:40;;;;;;;19.87;15.53;;;;;;;6.65;60.30;101481.48;1764088;79;21146;-74
2021/04/09 07:32:17;;;;;;;21.50;16.65;;;;;;;6.73;59.55;101479.91;1760079;79;21609;-72
2021/04/09 07:34:53;;;;;;;20.75;16.02;;;;;;;6.76;58.65;101482.67;1763509;79;21284;-72
2021/04/09 07:37:23;;;;;;;21.35;15.48;;;;;;;6.82;58.37;101489.80;1733145;81;21200;-72
2021/04/09 07:39:56;;;;;;;20.00;15.70;;;;;;;6.85;57.73;101481.94;1762329;79;21191;-74
2021/04/09 07:42:33;;;;;;;17.02;13.43;;;;;;;6.89;57.71;101490.59;1762196;79;21164;-72
2021/04/09 07:45:09;;;;;;;19.10;14.85;;;;;;;6.94;56.97;101491.28;1762774;79;21393;-73
2021/04/09 07:47:39;;;;;;;16.80;13.32;;;;;;;6.92;57.01;101487.52;1760409;81;21653;-73
2021/04/09 07:50:10;;;;;;;17.23;14.20;;;;;;;7.01;56.96;101488.92;1778016;78;21197;-73
2021/04/09 07:52:46;;;;;;;16.62;12.25;;;;;;;7.15;55.54;101489.68;1774873;79;21625;-73
2021/04/09 07:55:22;;;;;;;14.90;12.10;;;;;;;7.23;54.18;101486.77;1748510;80;21222;-73
2021/04/09 07:57:50;;;;;;;14.83;11.25;;;;;;;7.29;54.26;101493.90;1760756;79;22366;-73
2021/04/09 08:00:23;;;;;;;14.05;11.43;;;;;;;7.41;53.23;101482.09;1762822;80;21535;-73
2021/04/09 08:02:55;;;;;;;15.68;11.65;;;;;;;7.51;53.70;101485.63;1777821;79;21200;-74
2021/04/09 08:05:26;;;;;;;14.75;11.73;;;;;;;7.68;53.67;101492.05;1777752;79;21212;-72
2021/04/09 08:07:54;;;;;;;13.95;11.03;;;;;;;7.78;52.67;101479.61;1767873;80;21124;-73
2021/04/09 08:10:32;;;;;;;12.35;9.33;;;;;;;7.80;50.85;101484.21;1774200;80;21139;-73
2021/04/09 08:13:01;;;;;;;13.38;10.68;;;;;;;7.82;50.42;101479.98;1778685;79;21128;-73
2021/04/09 08:15:33;;;;;;;14.35;10.95;;;;;;;7.90;50.28;101479.22;1779363;79;21646;-73
2021/04/09 08:18:09;;;;;;;12.58;9.40;;;;;;;8.00;49.46;101476.08;1744682;82;21721;-74
2021/04/09 08:20:42;;;;;;;13.58;10.75;;;;;;;8.11;49.25;101475.36;1752563;80;21160;-72
2021/04/09 08:23:13;;;;;;;16.35;11.73;;;;;;;8.09;48.83;101473.42;1764226;79;22250;-72
2021/04/09 08:25:42;;;;;;;15.95;11.93;;;;;;;8.16;49.14;101480.02;1759784;80;21228;-72
2021/04/09 08:28:11;;;;;;;12.30;9.73;;;;;;;8.30;48.90;101476.75;1749954;81;21142;-73
2021/04/09 08:30:39;;;;;;;15.38;11.57;;;;;;;8.42;47.13;101477.17;1756112;80;21620;-73
2021/04/09 08:33:07;;;;;;;16.80;11.95;;;;;;;8.43;46.80;101477.98;1758067;80;21616;-73
2021/04/09 08:35:37;;;;;;;14.33;10.72;;;;;;;8.40;47.15;101465.11;1727331;81;21345;-73
2021/04/09 08:38:07;;;;;;;16.10;10.95;;;;;;;8.47;46.64;101474.36;1753979;81;21185;-72
2021/04/09 08:40:35;;;;;;;14.43;10.23;;;;;;;8.50;46.29;101479.24;1750250;79;21723;-72
2021/04/09 08:43:03;;;;;;;14.35;9.88;;;;;;;8.57;46.09;101471.48;1758553;79;21216;-72
2021/04/09 08:45:33;;;;;;;13.08;10.32;;;;;;;8.63;45.67;101467.13;1769262;79;21219;-71
2021/04/09 08:48:01;;;;;;;14.85;11.18;;;;;;;8.72;46.17;101468.46;1762849;79;21820;-72
2021/04/09 08:50:29;;;;;;;12.98;10.35;;;;;;;8.92;45.79;101465.56;1756479;79;21217;-72
2021/04/09 08:52:58;;;;;;;12.63;9.63;;;;;;;9.15;44.78;101462.20;1747734;79;21223;-73
2021/04/09 08:55:40;;;;;;;12.37;9.90;;;;;;;9.34;43.59;101460.29;1759696;80;21652;-73
2021/04/09 08:58:15;;;;;;;11.50;9.53;;;;;;;9.49;43.73;101467.89;1762706;79;21177;-72
2021/04/09 09:00:45;;;;;;;12.50;9.03;;;;;;;9.56;42.78;101471.27;1760959;79;21434;-72
2021/04/09 09:03:28;;;;;;;12.20;8.98;;;;;;;9.63;42.21;101470.64;1760594;79;21601;-73
2021/04/09 09:06:03;;;;;;;10.93;8.30;;;;;;;9.73;41.61;101477.57;1759348;79;21228;-72
2021/04/09 09:08:53;;;;;;;9.40;7.53;;;;;;;9.85;39.41;101463.73;1759298;79;21249;-72
2021/04/09 09:11:54;;;;;;;8.50;6.22;;;;;;;9.88;40.22;101461.14;1759718;79;21191;-73
2021/04/09 09:14:41;;;;;;;6.22;4.28;;;;;;;10.08;38.58;101462.95;1750075;79;22217;-72
2021/04/09 09:17:23;;;;;;;7.25;4.65;;;;;;;10.38;35.56;101462.59;1758596;80;21260;-72
2021/04/09 09:20:13;;;;;;;6.45;4.72;;;;;;;10.41;33.75;101458.11;1743534;79;21157;-73
2021/04/09 09:22:48;;;;;;;7.12;4.72;;;;;;;10.40;34.23;101463.14;1760527;79;21109;-72
2021/04/09 09:25:16;;;;;;;5.80;4.20;;;;;;;10.53;34.92;101454.39;1759097;80;21152;-73
2021/04/09 09:27:52;;;;;;;8.70;6.20;;;;;;;10.76;33.31;101462.89;1738952;81;21201;-71
2021/04/09 09:30:39;;;;;;;9.63;7.13;;;;;;;10.81;33.97;101467.52;1759563;81;21222;-71
2021/04/09 09:33:28;;;;;;;10.43;7.28;;;;;;;10.66;34.75;101465.35;1758512;80;21491;-72
2021/04/09 09:36:12;;;;;;;10.70;7.10;;;;;;;10.37;35.75;101475.13;1762303;80;21211;-72
2021/04/09 09:38:55;;;;;;;13.48;7.70;;;;;;;10.18;35.83;101473.06;1759421;81;21132;-72
2021/04/09 09:41:40;;;;;;;10.68;7.62;;;;;;;10.05;36.09;101468.75;1749579;79;21385;-72
2021/04/09 09:44:30;;;;;;;10.53;7.97;;;;;;;9.93;36.32;101479.92;1752686;80;21200;-72
2021/04/09 09:47:07;;;;;;;13.03;6.92;;;;;;;9.74;36.67;101478.38;1780907;79;21127;-72
2021/04/09 09:49:36;;;;;;;10.08;8.03;;;;;;;9.62;37.59;101481.03;1780619;80;21078;-72
2021/04/09 09:52:23;;;;;;;10.55;8.15;;;;;;;9.60;38.15;101473.77;1750429;81;21182;-73
2021/04/09 09:55:26;;;;;;;10.58;7.62;;;;;;;9.70;38.77;101479.89;1774083;79;21268;-71
2021/04/09 09:57:58;;;;;;;11.22;7.92;;;;;;;9.82;37.84;101484.20;1745414;80;21086;-72
2021/04/09 10:00:32;;;;;;;13.50;8.40;;;;;;;9.92;37.35;101478.31;1752298;80;21067;-72
2021/04/09 10:03:21;;;;;;;10.53;7.22;;;;;;;9.97;36.79;101479.78;1778518;79;21161;-73
2021/04/09 10:06:02;;;;;;;9.65;6.90;;;;;;;9.97;36.34;101475.78;1778313;79;21484;-72
2021/04/09 10:08:34;;;;;;;8.10;4.75;;;;;;;9.94;36.04;101478.91;1774093;79;21427;-72
2021/04/09 10:11:17;;;;;;;8.25;5.00;;;;;;;9.99;34.54;101473.67;1774902;79;21105;-73
2021/04/09 10:13:47;;;;;;;9.23;5.95;;;;;;;10.06;33.84;101478.38;1748271;80;21193;-72
2021/04/09 10:16:25;;;;;;;7.55;5.25;;;;;;;10.07;34.71;101477.35;1781196;79;21251;-72
2021/04/09 10:18:58;;;;;;;7.20;4.80;;;;;;;10.09;33.77;101477.92;1770008;79;21617;-72
2021/04/09 10:21:31;;;;;;;7.83;5.25;;;;;;;10.10;33.57;101476.05;1764474;81;21437;-73
2021/04/09 10:24:14;;;;;;;7.83;5.23;;;;;;;10.08;33.25;101482.97;1762883;80;21647;-73
2021/04/09 10:26:58;;;;;;;6.78;5.08;;;;;;;9.95;32.71;101472.52;1763590;79;26383;-72
2021/04/09 10:29:30;;;;;;;8.45;5.42;;;;;;;9.80;34.14;101470.80;1785139;79;21091;-72
2021/04/09 10:31:58;;;;;;;;;;;;;;;9.82;34.51;101476.20;1755584;81;21165;-71
2021/04/09 10:34:30;;;;;;;10.72;5.35;;;;;;;9.92;34.09;101473.50;1748250;80;22119;-73
2021/04/09 10:36:58;;;;;;;6.80;4.53;;;;;;;10.06;35.05;101477.56;1777900;79;21191;-71
2021/04/09 10:39:27;;;;;;;8.90;4.78;;;;;;;10.12;33.35;101480.66;1781105;80;21100;-73
2021/04/09 10:41:57;;;;;;;7.70;5.45;;;;;;;10.13;34.02;101473.45;1769733;80;21218;-72
2021/04/09 10:44:31;;;;;;;9.48;5.97;;;;;;;10.19;33.91;101474.67;1754280;80;21227;-72
2021/04/09 10:47:04;;;;;;;8.10;5.30;;;;;;;10.25;33.87;101468.94;1778569;79;21391;-73
2021/04/09 10:49:39;;;;;;;7.55;4.92;;;;;;;10.31;33.48;101455.50;1762117;79;21088;-72
2021/04/09 10:52:15;;;;;;;7.90;5.35;;;;;;;10.36;32.64;101465.47;1756347;80;22228;-72
2021/04/09 10:54:46;;;;;;;5.97;4.47;;;;;;;10.28;33.56;101465.31;1774662;79;21615;-73
2021/04/09 10:57:21;;;;;;;7.87;4.40;;;;;;;10.31;33.08;101465.38;1777917;79;21152;-73
2021/04/09 10:59:52;;;;;;;10.58;4.92;;;;;;;10.42;31.70;101456.53;1767842;80;21378;-72
2021/04/09 11:02:23;;;;;;;7.42;4.50;;;;;;;10.49;31.23;101462.56;1772199;79;21592;-72
2021/04/09 11:05:00;;;;;;;6.37;3.90;;;;;;;10.58;31.93;101455.02;1775633;80;21580;-73
2021/04/09 11:07:47;;;;;;;6.20;3.80;;;;;;;10.69;31.56;101458.70;1777937;79;21152;-74
2021/04/09 11:10:35;;;;;;;6.97;4.15;;;;;;;10.73;30.32;101453.20;1760547;79;21168;-73
2021/04/09 11:13:07;;;;;;;5.75;4.10;;;;;;;10.74;31.67;101448.94;1773993;80;21781;-72
2021/04/09 11:15:41;;;;;;;6.03;4.10;;;;;;;10.87;31.02;101453.21;1771439;79;21127;-73
2021/04/09 11:18:09;;;;;;;5.97;4.60;;;;;;;10.91;30.54;101451.68;1776435;79;21183;-73
2021/04/09 11:20:44;;;;;;;6.70;4.57;;;;;;;10.95;30.55;101454.16;1765501;79;21270;-74
2021/04/09 11:23:14;;;;;;;6.93;4.70;;;;;;;11.01;29.53;101451.88;1775931;79;21834;-73
2021/04/09 11:25:49;;;;;;;6.85;4.20;;;;;;;11.11;31.25;101447.78;1777998;79;21343;-73
2021/04/09 11:28:28;;;;;;;9.17;4.70;;;;;;;11.27;30.15;101450.50;1773513;79;21177;-70
2021/04/09 11:31:03;;;;;;;7.83;5.50;;;;;;;11.30;29.97;101445.20;1773193;79;21836;-71
2021/04/09 11:33:39;;;;;;;8.33;5.20;;;;;;;11.30;30.90;101439.86;1781175;79;21339;-72
2021/04/09 11:36:20;;;;;;;5.80;4.33;;;;;;;11.27;29.97;101449.16;1753169;81;21451;-72
2021/04/09 11:39:13;;;;;;;7.43;4.80;;;;;;;11.14;30.36;101440.09;1778353;79;21301;-73
2021/04/09 11:41:56;;;;;;;7.90;5.10;;;;;;;11.15;31.41;101447.59;1768339;79;21463;-72